createdAt,value
2023-07-25T00:01:17.121Z,100616.03
2023-07-25T00:03:44.991Z,100616.84
2023-07-25T00:06:12.819Z,100620.13
2023-07-25T00:08:40.654Z,100617.41
2023-07-25T00:11:14.358Z,100617.66
2023-07-25T00:13:42.288Z,100612.22
2023-07-25T00:16:11.507Z,100621.47
2023-07-25T00:18:39.278Z,100626.91
2023-07-25T00:21:07.081Z,100632.63
2023-07-25T00:23:34.888Z,100621.75
2023-07-25T00:26:02.701Z,100620.13
2023-07-25T00:28:30.557Z,100619.31
2023-07-25T00:30:58.371Z,100617.69
2023-07-25T00:33:27.536Z,100617.97
2023-07-25T00:35:55.538Z,100625.31
2023-07-25T00:38:23.284Z,100618.25
2023-07-25T00:40:51.072Z,100618.53
2023-07-25T00:43:18.881Z,100620.44
2023-07-25T00:45:46.804Z,100616.06
2023-07-25T00:48:15.086Z,100609.56
2023-07-25T00:50:45.317Z,100616.06
2023-07-25T00:53:15.163Z,100615.53
2023-07-25T00:55:43.213Z,100611.19
2023-07-25T00:58:11.081Z,100610.66
2023-07-25T01:00:40.500Z,100618.81
2023-07-25T01:03:08.876Z,100610.13
2023-07-25T01:05:40.971Z,100612.03
2023-07-25T01:08:10.184Z,100605.78
2023-07-25T01:10:39.755Z,100609.59
2023-07-25T01:13:07.731Z,100608.75
2023-07-25T01:15:37.392Z,100593.53
2023-07-25T01:18:06.131Z,100606.59
2023-07-25T01:20:36.274Z,100603.34
2023-07-25T01:23:06.934Z,100608.78
2023-07-25T01:25:36.104Z,100605.25
2023-07-25T01:28:04.022Z,100607.97
2023-07-25T01:30:31.963Z,100598.47
2023-07-25T01:32:59.875Z,100597.66
2023-07-25T01:35:27.667Z,100596.00
2023-07-25T01:37:55.457Z,100595.19
2023-07-25T01:40:23.369Z,100588.94
2023-07-25T01:42:52.524Z,100588.13
2023-07-25T01:45:20.412Z,100589.50
2023-07-25T01:47:48.209Z,100578.63
2023-07-25T01:50:16.032Z,100580.00
2023-07-25T01:52:43.820Z,100584.91
2023-07-25T01:55:12.000Z,100585.97
2023-07-25T01:57:39.787Z,100588.69
2023-07-25T02:00:10.208Z,100584.34
2023-07-25T02:02:38.044Z,100582.72
2023-07-25T02:05:06.502Z,100586.53
2023-07-25T02:07:34.492Z,100582.19
2023-07-25T02:10:02.356Z,100575.13
2023-07-25T02:12:31.530Z,100573.50
2023-07-25T02:14:59.322Z,100573.50
2023-07-25T02:17:28.490Z,100574.59
2023-07-25T02:19:56.243Z,100576.75
2023-07-25T02:22:24.041Z,100576.50
2023-07-25T02:24:51.989Z,100571.31
2023-07-25T02:27:19.767Z,100568.06
2023-07-25T02:29:47.632Z,100568.06
2023-07-25T02:32:15.383Z,100573.50
2023-07-25T02:34:44.469Z,100568.06
2023-07-25T02:37:12.306Z,100569.97
2023-07-25T02:39:40.495Z,100569.16
2023-07-25T02:42:08.536Z,100575.41
2023-07-25T02:44:36.318Z,100574.59
2023-07-25T02:47:04.421Z,100566.72
2023-07-25T02:49:32.210Z,100570.25
2023-07-25T02:52:01.317Z,100572.97
2023-07-25T02:54:29.033Z,100578.66
2023-07-25T02:56:56.805Z,100571.34
2023-07-25T02:59:24.583Z,100569.69
2023-07-25T03:01:52.407Z,100569.94
2023-07-25T03:04:20.154Z,100575.41
2023-07-25T03:06:48.005Z,100576.47
2023-07-25T03:09:17.113Z,100571.31
2023-07-25T03:11:44.942Z,100574.84
2023-07-25T03:14:12.689Z,100565.88
2023-07-25T03:16:40.519Z,100572.41
2023-07-25T03:19:08.260Z,100568.34
2023-07-25T03:21:36.004Z,100557.47
2023-07-25T03:24:03.809Z,100560.47
2023-07-25T03:26:33.146Z,100556.13
2023-07-25T03:29:00.933Z,100564.25
2023-07-25T03:31:28.852Z,100564.25
2023-07-25T03:33:56.820Z,100569.97
2023-07-25T03:36:25.440Z,100561.00
2023-07-25T03:38:53.415Z,100562.09
2023-07-25T03:41:21.145Z,100563.19
2023-07-25T03:43:50.274Z,100556.41
2023-07-25T03:46:18.021Z,100568.09
2023-07-25T03:48:45.854Z,100564.00
2023-07-25T03:51:13.610Z,100577.59
2023-07-25T03:53:41.348Z,100575.97
2023-07-25T03:56:09.116Z,100568.09
2023-07-25T03:58:36.864Z,100568.09
2023-07-25T04:01:05.992Z,100564.56
2023-07-25T04:03:33.871Z,100570.25
2023-07-25T04:06:01.839Z,100567.28
2023-07-25T04:08:29.582Z,100569.44
2023-07-25T04:10:57.335Z,100567.00
2023-07-25T04:13:25.110Z,100562.38
2023-07-25T04:15:52.944Z,100564.28
2023-07-25T04:18:22.135Z,100563.47
2023-07-25T04:20:49.865Z,100572.44
2023-07-25T04:23:17.784Z,100567.28
2023-07-25T04:25:45.574Z,100569.19
2023-07-25T04:28:13.654Z,100560.22
2023-07-25T04:30:41.441Z,100560.22
2023-07-25T04:33:09.212Z,100559.41
2023-07-25T04:35:38.338Z,100562.94
2023-07-25T04:38:06.082Z,100560.50
2023-07-25T04:40:33.859Z,100559.69
2023-07-25T04:43:01.632Z,100560.50
2023-07-25T04:45:29.442Z,100562.41
2023-07-25T04:47:57.273Z,100557.81
2023-07-25T04:50:25.032Z,100564.28
2023-07-25T04:52:54.164Z,100564.59
2023-07-25T04:55:21.914Z,100561.88
2023-07-25T04:57:51.222Z,100557.53
2023-07-25T05:00:19.334Z,100555.91
2023-07-25T05:02:47.247Z,100554.28
2023-07-25T05:05:15.139Z,100564.34
2023-07-25T05:07:42.978Z,100567.59
2023-07-25T05:10:12.832Z,100562.44
2023-07-25T05:12:40.616Z,100571.41
2023-07-25T05:15:09.298Z,100576.84
2023-07-25T05:17:37.059Z,100566.78
2023-07-25T05:20:05.582Z,100572.50
2023-07-25T05:22:33.325Z,100576.84
2023-07-25T05:25:01.120Z,100575.19
2023-07-25T05:27:30.215Z,100576.56
2023-07-25T05:29:58.032Z,100580.38
2023-07-25T05:32:25.867Z,100581.72
2023-07-25T05:34:53.649Z,100584.97
2023-07-25T05:37:21.492Z,100591.50
2023-07-25T05:39:52.111Z,100592.84
2023-07-25T05:42:19.881Z,100591.78
2023-07-25T05:44:49.084Z,100587.97
2023-07-25T05:47:16.865Z,100596.38
2023-07-25T05:49:44.658Z,100593.66
2023-07-25T05:52:12.389Z,100577.38
2023-07-25T05:54:40.207Z,100587.16
2023-07-25T05:57:08.849Z,100581.44
2023-07-25T05:59:36.637Z,100587.69
2023-07-25T06:02:06.302Z,100587.69
2023-07-25T06:04:34.071Z,100583.34
2023-07-25T06:07:01.885Z,100580.09
2023-07-25T06:09:29.716Z,100582.00
2023-07-25T06:11:57.734Z,100582.25
2023-07-25T06:14:25.603Z,100587.69
2023-07-25T06:16:53.405Z,100589.59
2023-07-25T06:19:22.879Z,100599.66
2023-07-25T06:21:50.875Z,100596.13
2023-07-25T06:24:18.907Z,100595.84
2023-07-25T06:26:46.707Z,100598.56
2023-07-25T06:29:14.497Z,100606.69
2023-07-25T06:31:42.703Z,100598.56
2023-07-25T06:34:10.553Z,100588.78
2023-07-25T06:36:39.660Z,100605.88
2023-07-25T06:39:07.389Z,100604.25
2023-07-25T06:41:35.239Z,100604.25
2023-07-25T06:44:03.063Z,100599.91
2023-07-25T06:46:30.897Z,100596.38
2023-07-25T06:48:58.940Z,100603.44
2023-07-25T06:51:26.822Z,100598.56
2023-07-25T06:53:55.954Z,100595.03
2023-07-25T06:56:23.682Z,100601.53
2023-07-25T06:58:51.426Z,100598.00
2023-07-25T07:01:19.250Z,100614.31
2023-07-25T07:03:46.983Z,100604.25
2023-07-25T07:06:14.731Z,100606.97
2023-07-25T07:08:42.469Z,100611.59
2023-07-25T07:11:11.581Z,100605.34
2023-07-25T07:13:39.380Z,100615.94
2023-07-25T07:16:07.169Z,100617.03
2023-07-25T07:18:35.027Z,100623.00
2023-07-25T07:21:02.786Z,100624.91
2023-07-25T07:23:30.567Z,100624.91
2023-07-25T07:25:58.322Z,100620.28
2023-07-25T07:28:27.447Z,100613.78
2023-07-25T07:30:56.440Z,100619.75
2023-07-25T07:33:26.519Z,100614.03
2023-07-25T07:35:54.352Z,100618.66
2023-07-25T07:38:22.205Z,100623.28
2023-07-25T07:40:50.066Z,100634.97
2023-07-25T07:43:17.903Z,100629.53
2023-07-25T07:45:47.030Z,100635.78
2023-07-25T07:48:14.775Z,100635.78
2023-07-25T07:50:42.523Z,100640.38
2023-07-25T07:53:10.318Z,100630.59
2023-07-25T07:55:38.141Z,100631.41
2023-07-25T07:58:06.111Z,100644.19
2023-07-25T08:00:34.266Z,100640.38
2023-07-25T08:03:03.408Z,100642.81
2023-07-25T08:05:31.307Z,100643.66
2023-07-25T08:07:59.097Z,100645.53
2023-07-25T08:10:27.041Z,100650.97
2023-07-25T08:12:54.812Z,100654.50
2023-07-25T08:15:22.599Z,100651.53
2023-07-25T08:17:50.493Z,100643.38
2023-07-25T08:20:19.760Z,100654.25
2023-07-25T08:22:49.144Z,100656.97
2023-07-25T08:25:17.100Z,100655.31
2023-07-25T08:27:44.885Z,100664.56
2023-07-25T08:30:13.285Z,100656.41
2023-07-25T08:32:41.241Z,100674.34
2023-07-25T08:35:09.656Z,100663.47
2023-07-25T08:37:38.830Z,100667.81
2023-07-25T08:40:08.322Z,100674.88
2023-07-25T08:42:37.404Z,100671.34
2023-07-25T08:45:08.280Z,100675.97
2023-07-25T08:47:41.282Z,100679.22
2023-07-25T08:50:13.871Z,100687.09
2023-07-25T08:52:48.020Z,100689.81
2023-07-25T08:55:16.010Z,100694.16
2023-07-25T08:57:45.145Z,100692.00
2023-07-25T09:00:15.095Z,100684.94
2023-07-25T09:02:43.076Z,100693.91
2023-07-25T09:05:12.058Z,100691.72
2023-07-25T09:07:41.174Z,100688.75
2023-07-25T09:10:12.241Z,100693.09
2023-07-25T09:12:40.155Z,100693.63
2023-07-25T09:15:08.730Z,100686.03
2023-07-25T09:17:37.031Z,100691.97
2023-07-25T09:20:06.862Z,100691.69
2023-07-25T09:22:35.500Z,100690.63
2023-07-25T09:25:10.880Z,100679.47
2023-07-25T09:27:38.624Z,100677.31
2023-07-25T09:30:12.941Z,100680.03
2023-07-25T09:32:41.107Z,100680.03
2023-07-25T09:35:10.881Z,100682.19
2023-07-25T09:37:38.656Z,100682.75
2023-07-25T09:40:11.939Z,100689.53
2023-07-25T09:42:42.433Z,100692.25
2023-07-25T09:45:11.236Z,100690.91
2023-07-25T09:47:39.509Z,100689.81
2023-07-25T09:50:08.562Z,100703.94
2023-07-25T09:52:43.837Z,100686.53
2023-07-25T09:55:12.971Z,100685.47
2023-07-25T09:57:41.211Z,100687.91
2023-07-25T10:00:10.680Z,100684.09
2023-07-25T10:02:39.407Z,100690.94
2023-07-25T10:05:09.352Z,100674.31
2023-07-25T10:07:37.570Z,100686.31
2023-07-25T10:10:06.194Z,100691.47
2023-07-25T10:12:35.300Z,100693.38
2023-07-25T10:15:03.372Z,100696.91
2023-07-25T10:17:31.134Z,100693.38
2023-07-25T10:19:59.264Z,100694.72
2023-07-25T10:22:37.996Z,100685.50
2023-07-25T10:25:11.200Z,100693.38
2023-07-25T10:27:40.440Z,100681.41
2023-07-25T10:30:23.893Z,100682.50
2023-07-25T10:32:53.737Z,100679.78
2023-07-25T10:35:43.381Z,100678.41
2023-07-25T10:38:12.666Z,100684.66
2023-07-25T10:40:57.612Z,100690.66
2023-07-25T10:43:30.866Z,100688.75
2023-07-25T10:46:02.251Z,100693.63
2023-07-25T10:48:37.470Z,100694.97
2023-07-25T10:51:09.429Z,100697.97
2023-07-25T10:53:37.808Z,100694.16
2023-07-25T10:56:16.761Z,100688.44
2023-07-25T10:59:09.612Z,100696.06
2023-07-25T11:01:49.255Z,100678.38
2023-07-25T11:04:28.766Z,100684.34
2023-07-25T11:06:58.347Z,100677.28
2023-07-25T11:09:27.391Z,100682.16
2023-07-25T11:11:56.371Z,100685.16
2023-07-25T11:14:25.549Z,100688.41
2023-07-25T11:16:54.897Z,100683.53
2023-07-25T11:19:29.654Z,100685.16
2023-07-25T11:21:57.589Z,100693.59
2023-07-25T11:24:25.464Z,100698.47
2023-07-25T11:26:53.296Z,100697.66
2023-07-25T11:29:21.033Z,100697.94
2023-07-25T11:31:51.172Z,100693.59
2023-07-25T11:34:20.561Z,100699.84
2023-07-25T11:36:48.994Z,100694.13
2023-07-25T11:39:18.050Z,100694.94
2023-07-25T11:41:46.820Z,100693.03
2023-07-25T11:44:16.372Z,100709.91
2023-07-25T11:46:46.539Z,100707.72
2023-07-25T11:49:24.971Z,100707.19
2023-07-25T11:52:04.706Z,100702.28
2023-07-25T11:54:33.796Z,100709.63
2023-07-25T11:57:02.196Z,100706.09
2023-07-25T11:59:30.007Z,100695.19
2023-07-25T12:02:07.058Z,100697.09
2023-07-25T12:04:43.843Z,100694.13
2023-07-25T12:07:11.741Z,100689.22
2023-07-25T12:09:41.009Z,100687.84
2023-07-25T12:12:13.710Z,100688.38
2023-07-25T12:14:42.366Z,100687.28
2023-07-25T12:17:10.253Z,100698.72
2023-07-25T12:19:39.424Z,100707.41
2023-07-25T12:22:09.196Z,100693.81
2023-07-25T12:24:43.189Z,100704.41
2023-07-25T12:27:17.795Z,100691.63
2023-07-25T12:29:45.913Z,100681.84
2023-07-25T12:32:14.111Z,100698.97
2023-07-25T12:34:43.323Z,100706.03
2023-07-25T12:37:11.117Z,100700.59
2023-07-25T12:39:41.568Z,100703.31
2023-07-25T12:42:09.462Z,100707.66
2023-07-25T12:44:37.324Z,100716.34
2023-07-25T12:47:05.797Z,100716.91
2023-07-25T12:49:34.717Z,100719.63
2023-07-25T12:52:03.902Z,100706.81
2023-07-25T12:54:31.722Z,100709.53
2023-07-25T12:56:59.487Z,100709.81
2023-07-25T12:59:27.318Z,100709.25
2023-07-25T13:01:55.477Z,100716.31
2023-07-25T13:04:23.486Z,100715.78
2023-07-25T13:06:51.616Z,100723.09
2023-07-25T13:09:20.844Z,100719.84
2023-07-25T13:11:48.689Z,100727.44
2023-07-25T13:14:16.571Z,100718.75
2023-07-25T13:16:44.598Z,100720.66
2023-07-25T13:19:13.616Z,100709.22
2023-07-25T13:21:41.445Z,100712.50
2023-07-25T13:24:09.325Z,100709.75
2023-07-25T13:26:38.982Z,100715.22
2023-07-25T13:29:06.864Z,100723.38
2023-07-25T13:31:34.954Z,100725.53
2023-07-25T13:34:02.863Z,100723.88
2023-07-25T13:36:30.734Z,100724.69
2023-07-25T13:38:58.534Z,100729.88
2023-07-25T13:41:26.380Z,100727.97
2023-07-25T13:43:55.492Z,100730.69
2023-07-25T13:46:23.317Z,100729.88
2023-07-25T13:48:52.148Z,100725.50
2023-07-25T13:51:20.063Z,100720.88
2023-07-25T13:53:47.922Z,100727.97
2023-07-25T13:56:15.892Z,100730.13
2023-07-25T13:58:43.908Z,100726.31
2023-07-25T14:01:13.113Z,100727.94
2023-07-25T14:03:40.925Z,100730.38
2023-07-25T14:06:08.653Z,100747.53
2023-07-25T14:08:36.473Z,100726.56
2023-07-25T14:11:04.345Z,100733.63
2023-07-25T14:13:32.759Z,100729.81
2023-07-25T14:16:01.349Z,100746.16
2023-07-25T14:18:30.588Z,100741.81
2023-07-25T14:21:00.602Z,100748.06
2023-07-25T14:23:28.526Z,100742.34
2023-07-25T14:25:56.401Z,100750.22
2023-07-25T14:28:24.297Z,100751.31
2023-07-25T14:30:52.289Z,100748.03
2023-07-25T14:33:21.764Z,100765.75
2023-07-25T14:35:51.412Z,100762.19
2023-07-25T14:38:19.772Z,100759.47
2023-07-25T14:40:47.937Z,100767.38
2023-07-25T14:43:15.736Z,100764.94
2023-07-25T14:45:43.546Z,100765.19
2023-07-25T14:48:11.473Z,100779.63
2023-07-25T14:50:40.851Z,100778.00
2023-07-25T14:53:10.291Z,100779.09
2023-07-25T14:55:38.093Z,100772.56
2023-07-25T14:58:05.970Z,100784.25
2023-07-25T15:00:33.964Z,100794.88
2023-07-25T15:03:01.952Z,100782.34
2023-07-25T15:05:29.938Z,100780.44
2023-07-25T15:07:57.738Z,100791.06
2023-07-25T15:10:27.250Z,100790.25
2023-07-25T15:12:56.305Z,100788.09
2023-07-25T15:15:24.181Z,100793.53
2023-07-25T15:17:52.367Z,100790.81
2023-07-25T15:20:21.680Z,100794.34
2023-07-25T15:22:49.703Z,100798.97
2023-07-25T15:25:17.526Z,100796.53
2023-07-25T15:27:46.742Z,100793.53
2023-07-25T15:30:14.569Z,100795.44
2023-07-25T15:32:42.472Z,100797.34
2023-07-25T15:35:11.382Z,100801.72
2023-07-25T15:37:39.498Z,100799.25
2023-07-25T15:40:09.198Z,100806.34
2023-07-25T15:42:36.958Z,100808.78
2023-07-25T15:45:07.491Z,100806.88
2023-07-25T15:47:35.352Z,100818.31
2023-07-25T15:50:03.477Z,100809.06
2023-07-25T15:52:31.389Z,100812.59
2023-07-25T15:55:00.073Z,100811.25
2023-07-25T15:57:27.984Z,100816.97
2023-07-25T15:59:55.832Z,100806.06
2023-07-25T16:02:25.151Z,100811.25
2023-07-25T16:04:52.978Z,100812.34
2023-07-25T16:07:20.746Z,100812.06
2023-07-25T16:09:48.488Z,100806.34
2023-07-25T16:12:16.915Z,100809.63
2023-07-25T16:14:44.751Z,100811.78
2023-07-25T16:17:12.777Z,100816.44
2023-07-25T16:19:42.360Z,100810.16
2023-07-25T16:22:10.224Z,100805.53
2023-07-25T16:24:38.152Z,100812.88
2023-07-25T16:27:06.556Z,100812.88
2023-07-25T16:29:34.419Z,100807.97
2023-07-25T16:32:02.380Z,100808.78
2023-07-25T16:34:31.518Z,100821.59
2023-07-25T16:37:00.664Z,100830.03
2023-07-25T16:39:28.720Z,100825.97
2023-07-25T16:41:56.836Z,100835.22
2023-07-25T16:44:24.833Z,100828.16
2023-07-25T16:46:52.619Z,100825.97
2023-07-25T16:49:20.482Z,100832.50
2023-07-25T16:51:48.383Z,100831.69
2023-07-25T16:54:17.975Z,100822.72
2023-07-25T16:56:45.973Z,100827.09
2023-07-25T16:59:13.737Z,100846.41
2023-07-25T17:01:41.545Z,100832.00
2023-07-25T17:04:09.343Z,100839.59
2023-07-25T17:06:37.235Z,100846.41
2023-07-25T17:09:05.500Z,100844.78
2023-07-25T17:11:35.723Z,100847.50
2023-07-25T17:14:03.944Z,100852.97
2023-07-25T17:16:31.916Z,100849.69
2023-07-25T17:18:59.748Z,100851.88
2023-07-25T17:21:39.411Z,100861.94
2023-07-25T17:24:09.044Z,100857.59
2023-07-25T17:26:38.834Z,100852.97
2023-07-25T17:29:07.135Z,100853.78
2023-07-25T17:31:35.602Z,100855.94
2023-07-25T17:34:04.166Z,100848.31
2023-07-25T17:36:32.081Z,100861.66
2023-07-25T17:38:59.874Z,100869.28
2023-07-25T17:41:27.701Z,100867.66
2023-07-25T17:43:56.906Z,100873.38
2023-07-25T17:46:24.759Z,100879.09
2023-07-25T17:48:54.510Z,100881.00
2023-07-25T17:51:22.457Z,100887.25
2023-07-25T17:53:50.227Z,100893.53
2023-07-25T17:56:18.076Z,100890.25
2023-07-25T17:58:45.923Z,100888.34
2023-07-25T18:01:15.274Z,100901.97
2023-07-25T18:03:43.224Z,100901.41
2023-07-25T18:06:11.018Z,100902.50
2023-07-25T18:08:39.200Z,100898.69
2023-07-25T18:11:07.263Z,100897.88
2023-07-25T18:13:35.079Z,100902.78
2023-07-25T18:16:02.955Z,100904.69
2023-07-25T18:18:32.234Z,100895.44
2023-07-25T18:21:00.006Z,100896.53
2023-07-25T18:23:27.772Z,100894.63
2023-07-25T18:26:01.119Z,100898.16
2023-07-25T18:28:29.044Z,100903.31
2023-07-25T18:30:56.853Z,100898.69
2023-07-25T18:33:24.781Z,100916.38
2023-07-25T18:35:53.957Z,100917.22
2023-07-25T18:38:21.809Z,100922.91
2023-07-25T18:40:49.678Z,100919.38
2023-07-25T18:43:20.506Z,100927.56
2023-07-25T18:45:48.435Z,100930.53
2023-07-25T18:48:16.269Z,100933.28
2023-07-25T18:50:44.700Z,100936.25
2023-07-25T18:53:13.944Z,100936.25
2023-07-25T18:55:42.408Z,100940.34
2023-07-25T18:58:10.284Z,100948.75
2023-07-25T19:00:38.170Z,100948.22
2023-07-25T19:03:06.029Z,100952.03
2023-07-25T19:05:34.002Z,100957.75
2023-07-25T19:08:01.848Z,100965.38
2023-07-25T19:10:31.185Z,100962.63
2023-07-25T19:12:59.019Z,100965.34
2023-07-25T19:15:27.013Z,100975.97
2023-07-25T19:17:54.877Z,100972.16
2023-07-25T19:20:22.655Z,100980.59
2023-07-25T19:22:50.420Z,100984.41
2023-07-25T19:25:18.248Z,100979.78
2023-07-25T19:27:49.236Z,100977.06
2023-07-25T19:30:17.291Z,100986.31
2023-07-25T19:32:45.839Z,100983.59
2023-07-25T19:35:13.685Z,100983.03
2023-07-25T19:37:41.498Z,100994.75
2023-07-25T19:40:10.679Z,100985.75
2023-07-25T19:42:38.587Z,100986.84
2023-07-25T19:45:08.964Z,100986.03
2023-07-25T19:47:36.839Z,100994.19
2023-07-25T19:50:04.933Z,100987.94
2023-07-25T19:52:32.714Z,101003.44
2023-07-25T19:55:00.588Z,101003.72
2023-07-25T19:57:28.400Z,101002.09
2023-07-25T19:59:56.158Z,101007.78
2023-07-25T20:02:25.360Z,101008.88
2023-07-25T20:04:53.306Z,101008.34
2023-07-25T20:07:21.111Z,101014.88
2023-07-25T20:09:49.177Z,101024.66
2023-07-25T20:12:17.030Z,101025.75
2023-07-25T20:14:44.856Z,101030.38
2023-07-25T20:17:12.612Z,101033.09
2023-07-25T20:19:41.767Z,101028.72
2023-07-25T20:22:09.575Z,101028.72
2023-07-25T20:24:37.412Z,101034.19
2023-07-25T20:27:05.629Z,101037.97
2023-07-25T20:29:33.546Z,101040.69
2023-07-25T20:32:01.404Z,101051.59
2023-07-25T20:34:29.274Z,101043.44
2023-07-25T20:36:58.952Z,101054.31
2023-07-25T20:39:26.784Z,101055.41
2023-07-25T20:41:54.547Z,101057.28
2023-07-25T20:44:22.470Z,101060.84
2023-07-25T20:46:50.453Z,101057.56
2023-07-25T20:49:18.309Z,101068.44
2023-07-25T20:51:46.117Z,101064.91
2023-07-25T20:54:15.301Z,101068.72
2023-07-25T20:56:43.080Z,101066.25
2023-07-25T20:59:14.776Z,101073.34
2023-07-25T21:01:42.958Z,101061.91
2023-07-25T21:04:10.925Z,101062.72
2023-07-25T21:06:38.725Z,101063.81
2023-07-25T21:09:06.510Z,101063.00
2023-07-25T21:11:35.694Z,101062.16
2023-07-25T21:14:03.532Z,101064.91
2023-07-25T21:16:31.977Z,101059.72
2023-07-25T21:19:00.082Z,101060.53
2023-07-25T21:21:28.009Z,101064.34
2023-07-25T21:23:55.804Z,101069.78
2023-07-25T21:26:23.678Z,101073.59
2023-07-25T21:28:52.807Z,101072.50
2023-07-25T21:31:20.634Z,101077.38
2023-07-25T21:33:48.651Z,101068.16
2023-07-25T21:36:16.760Z,101073.03
2023-07-25T21:38:44.711Z,101076.56
2023-07-25T21:41:14.229Z,101074.94
2023-07-25T21:43:42.988Z,101074.94
2023-07-25T21:46:12.184Z,101076.03
2023-07-25T21:48:40.011Z,101079.81
2023-07-25T21:51:08.835Z,101075.19
2023-07-25T21:53:36.713Z,101080.09
2023-07-25T21:56:04.792Z,101079.28
2023-07-25T21:58:32.648Z,101074.66
2023-07-25T22:01:00.814Z,101077.91
2023-07-25T22:03:30.572Z,101080.34
2023-07-25T22:06:00.093Z,101084.97
2023-07-25T22:08:27.938Z,101082.78
2023-07-25T22:10:56.643Z,101077.63
2023-07-25T22:13:24.954Z,101081.16
2023-07-25T22:15:52.891Z,101080.88
2023-07-25T22:18:20.652Z,101079.25
2023-07-25T22:20:52.773Z,101075.72
2023-07-25T22:23:21.603Z,101074.91
2023-07-25T22:25:49.758Z,101077.63
2023-07-25T22:28:17.603Z,101081.41
2023-07-25T22:30:45.427Z,101077.88
2023-07-25T22:33:13.211Z,101078.69
2023-07-25T22:35:41.046Z,101078.69
2023-07-25T22:38:10.198Z,101075.44
2023-07-25T22:40:37.973Z,101078.97
2023-07-25T22:43:06.213Z,101078.97
2023-07-25T22:45:34.061Z,101085.50
2023-07-25T22:48:01.961Z,101084.66
2023-07-25T22:50:29.771Z,101081.13
2023-07-25T22:52:57.556Z,101084.66
2023-07-25T22:55:26.700Z,101089.28
2023-07-25T22:57:54.860Z,101086.56
2023-07-25T23:00:22.707Z,101075.69
2023-07-25T23:02:52.484Z,101066.97
2023-07-25T23:05:20.496Z,101072.41
2023-07-25T23:07:48.327Z,101072.41
2023-07-25T23:10:16.580Z,101082.47
2023-07-25T23:12:45.838Z,101069.13
2023-07-25T23:15:14.521Z,101076.22
2023-07-25T23:17:42.386Z,101080.28
2023-07-25T23:20:10.980Z,101074.03
2023-07-25T23:22:38.858Z,101074.84
2023-07-25T23:25:07.456Z,101073.22
2023-07-25T23:27:35.273Z,101073.22
2023-07-25T23:30:05.235Z,101082.19
2023-07-25T23:32:33.055Z,101073.22
2023-07-25T23:35:00.810Z,101075.94
2023-07-25T23:37:28.602Z,101079.75
2023-07-25T23:39:56.529Z,101085.19
2023-07-25T23:42:24.346Z,101087.06
2023-07-25T23:44:52.173Z,101084.09
2023-07-25T23:47:21.340Z,101079.75
2023-07-25T23:49:49.166Z,101085.44
2023-07-25T23:52:16.948Z,101082.72
2023-07-25T23:54:44.783Z,101083.81
2023-07-25T23:57:13.203Z,101088.44
2023-07-25T23:59:40.988Z,101091.16
